Time;durP1;ratioP1;P1;durP2;ratioP2;P2;SDS_P1;SDS_P2;PMS_P1;PMS_P2;Temp;Humidity;BMP_temperature;BMP_pressure;BME280_temperature;BME280_humidity;BME280_pressure;Samples;Min_cycle;Max_cycle;Signal;HPM_P1;HPM_P2
2021/09/02 00:02:08;;;;;;;29.27;18.90;;;13.10;94.70;;;;;;4950388;29;20226;-76
2021/09/02 00:04:34;;;;;;;34.27;20.97;;;13.10;94.70;;;;;;4932637;29;20418;-75
2021/09/02 00:06:59;;;;;;;32.20;19.70;;;13.10;94.70;;;;;;4951222;29;20469;-76
2021/09/02 00:09:26;;;;;;;32.03;19.57;;;13.10;94.70;;;;;;4951250;29;20177;-75
2021/09/02 00:11:52;;;;;;;31.43;19.60;;;13.10;94.50;;;;;;4952988;29;20182;-76
2021/09/02 00:14:17;;;;;;;47.50;19.93;;;13.10;94.40;;;;;;4953845;29;20448;-75
2021/09/02 00:16:47;;;;;;;33.10;19.63;;;13.20;94.40;;;;;;4936595;29;20162;-75
2021/09/02 00:19:13;;;;;;;32.43;18.80;;;13.20;94.40;;;;;;4949732;29;20189;-75
2021/09/02 00:21:38;;;;;;;37.27;21.70;;;13.20;94.50;;;;;;4933911;29;20465;-76
2021/09/02 00:24:05;;;;;;;33.90;19.30;;;13.20;94.30;;;;;;4927762;29;20196;-74
2021/09/02 00:26:30;;;;;;;36.80;19.70;;;13.20;94.30;;;;;;4933516;29;20551;-76
2021/09/02 00:28:56;;;;;;;32.90;18.70;;;13.20;94.30;;;;;;4933116;29;20493;-75
2021/09/02 00:31:22;;;;;;;34.43;18.20;;;13.30;94.30;;;;;;4932946;29;20540;-74
2021/09/02 00:33:47;;;;;;;30.67;18.53;;;13.30;94.40;;;;;;4931828;29;20185;-74
2021/09/02 00:36:13;;;;;;;31.73;19.03;;;13.30;94.30;;;;;;4934670;29;20193;-75
2021/09/02 00:38:39;;;;;;;34.00;20.03;;;13.30;94.30;;;;;;4934589;29;20698;-75
2021/09/02 00:41:04;;;;;;;32.13;19.20;;;13.40;94.20;;;;;;4936015;29;20198;-75
2021/09/02 00:43:38;;;;;;;37.37;20.67;;;13.40;94.20;;;;;;4935236;29;20284;-74
2021/09/02 00:46:04;;;;;;;31.53;18.93;;;13.40;94.20;;;;;;4936259;29;20185;-74
2021/09/02 00:48:30;;;;;;;33.90;19.00;;;13.40;94.10;;;;;;4935969;29;20923;-74
2021/09/02 00:50:56;;;;;;;29.43;17.10;;;13.40;94.10;;;;;;4935828;29;20466;-77
2021/09/02 00:53:22;;;;;;;31.97;18.10;;;13.40;94.00;;;;;;4935947;29;20174;-74
2021/09/02 00:55:48;;;;;;;33.43;19.70;;;13.40;94.10;;;;;;4936077;29;20174;-74
2021/09/02 00:58:14;;;;;;;46.20;20.87;;;13.40;94.30;;;;;;4935516;29;20422;-75
2021/09/02 01:00:39;;;;;;;32.17;18.57;;;13.40;94.30;;;;;;4934305;29;20552;-75
2021/09/02 01:03:05;;;;;;;35.07;19.50;;;13.40;94.40;;;;;;4918463;29;20648;-74
2021/09/02 01:05:31;;;;;;;33.40;19.77;;;13.50;94.50;;;;;;4934454;29;20284;-74
2021/09/02 01:07:59;;;;;;;32.40;19.33;;;13.60;94.50;;;;;;4935269;29;20245;-75
2021/09/02 01:10:25;;;;;;;38.33;20.00;;;13.60;94.40;;;;;;4935443;29;20201;-75
2021/09/02 01:12:51;;;;;;;31.80;18.00;;;13.60;94.40;;;;;;4934231;29;20415;-74
2021/09/02 01:15:20;;;;;;;33.73;18.90;;;13.60;94.30;;;;;;4935533;29;20187;-75
2021/09/02 01:17:48;;;;;;;31.70;18.00;;;13.70;94.30;;;;;;4934093;29;20427;-74
2021/09/02 01:20:19;;;;;;;29.40;16.10;;;13.70;94.20;;;;;;4935343;29;20477;-74
2021/09/02 01:22:47;;;;;;;34.63;18.10;;;13.70;94.20;;;;;;4935635;29;20412;-75
2021/09/02 01:25:15;;;;;;;34.17;15.93;;;13.70;94.20;;;;;;4933955;29;20424;-75
2021/09/02 01:27:43;;;;;;;28.10;17.67;;;13.70;94.40;;;;;;4935105;29;20482;-75
2021/09/02 01:30:11;;;;;;;31.10;17.97;;;13.70;94.50;;;;;;4935074;29;20780;-75
2021/09/02 01:32:39;;;;;;;30.93;17.10;;;13.70;94.50;;;;;;4935296;29;20421;-75
2021/09/02 01:35:07;;;;;;;32.30;19.10;;;13.80;94.50;;;;;;4934929;29;20409;-75
2021/09/02 01:37:48;;;;;;;36.00;18.87;;;13.80;94.50;;;;;;4935418;29;20922;-75
2021/09/02 01:40:17;;;;;;;27.13;16.53;;;13.80;94.50;;;;;;4935121;29;20457;-75
2021/09/02 01:42:43;;;;;;;29.30;17.33;;;13.80;94.60;;;;;;4935242;29;20925;-75
2021/09/02 01:45:10;;;;;;;33.50;17.37;;;13.80;94.50;;;;;;4935483;29;20826;-75
2021/09/02 01:47:36;;;;;;;30.00;17.73;;;13.80;94.60;;;;;;4934463;29;20806;-74
2021/09/02 01:50:16;;;;;;;28.57;16.43;;;13.80;94.50;;;;;;4934907;29;20472;-75
2021/09/02 01:52:41;;;;;;;28.23;15.80;;;13.90;94.60;;;;;;4935279;29;20271;-75
2021/09/02 01:55:09;;;;;;;25.30;15.83;;;13.90;94.60;;;;;;4935153;29;20858;-75
2021/09/02 01:57:36;;;;;;;27.03;15.03;;;13.90;94.50;;;;;;4933937;29;20195;-76
2021/09/02 02:00:03;;;;;;;31.50;16.57;;;13.90;94.50;;;;;;4933290;29;20470;-75
2021/09/02 02:02:29;;;;;;;29.30;17.10;;;13.90;94.50;;;;;;4935784;29;20453;-75
2021/09/02 02:04:55;;;;;;;31.10;16.87;;;13.90;94.50;;;;;;4935538;29;20405;-75
2021/09/02 02:07:21;;;;;;;28.63;17.57;;;14.00;94.50;;;;;;4934638;29;20166;-75
2021/09/02 02:09:46;;;;;;;27.57;15.90;;;14.00;94.50;;;;;;4932642;29;20645;-75
2021/09/02 02:12:12;;;;;;;27.10;16.37;;;14.00;94.50;;;;;;4934459;29;20168;-75
2021/09/02 02:14:38;;;;;;;30.87;15.80;;;14.10;94.50;;;;;;4934573;29;20166;-75
2021/09/02 02:17:04;;;;;;;25.80;15.77;;;14.00;94.30;;;;;;4934385;29;20316;-75
2021/09/02 02:19:29;;;;;;;32.37;16.70;;;14.10;94.40;;;;;;4932721;29;20182;-75
2021/09/02 02:21:55;;;;;;;26.07;14.57;;;14.10;94.30;;;;;;4934214;29;20450;-75
2021/09/02 02:24:21;;;;;;;25.67;15.07;;;14.10;94.20;;;;;;4934216;29;20190;-75
2021/09/02 02:26:46;;;;;;;21.83;13.33;;;14.10;94.20;;;;;;4934440;29;20248;-75
2021/09/02 02:29:12;;;;;;;21.93;13.53;;;14.10;94.00;;;;;;4934340;29;20175;-75
2021/09/02 02:31:37;;;;;;;21.10;12.80;;;14.00;94.00;;;;;;4934180;29;20204;-75
2021/09/02 02:34:03;;;;;;;21.83;12.90;;;14.00;94.00;;;;;;4934189;29;20207;-75
2021/09/02 02:36:29;;;;;;;23.90;13.97;;;14.00;94.00;;;;;;4934492;29;20178;-76
2021/09/02 02:38:55;;;;;;;28.50;13.23;;;14.00;94.10;;;;;;4934137;29;20229;-75
2021/09/02 02:41:21;;;;;;;27.90;13.53;;;14.00;94.20;;;;;;4934202;29;20611;-75
2021/09/02 02:43:47;;;;;;;25.50;13.70;;;13.90;94.20;;;;;;4933618;29;20461;-75
2021/09/02 02:46:12;;;;;;;24.90;14.37;;;13.90;94.20;;;;;;4933783;29;20616;-76
2021/09/02 02:48:38;;;;;;;27.40;13.80;;;13.90;94.30;;;;;;4938193;29;20310;-75
2021/09/02 02:51:04;;;;;;;31.40;13.53;;;13.80;94.40;;;;;;4937651;29;20202;-75
2021/09/02 02:53:30;;;;;;;21.37;11.17;;;13.80;94.40;;;;;;4932648;29;20669;-75
2021/09/02 02:55:56;;;;;;;24.63;12.60;;;13.90;94.50;;;;;;4933968;29;20509;-75
2021/09/02 02:58:21;;;;;;;28.50;13.17;;;13.90;94.50;;;;;;4932880;29;20166;-75
2021/09/02 03:00:47;;;;;;;21.77;12.50;;;13.90;94.50;;;;;;4933594;29;20209;-75
2021/09/02 03:03:13;;;;;;;21.57;13.20;;;14.00;94.50;;;;;;4934057;29;20590;-75
2021/09/02 03:05:38;;;;;;;23.93;12.40;;;14.00;94.50;;;;;;4933656;29;20173;-75
2021/09/02 03:08:04;;;;;;;27.63;12.93;;;14.00;94.50;;;;;;4933486;29;20185;-75
2021/09/02 03:10:30;;;;;;;23.47;12.33;;;14.00;94.40;;;;;;4933794;29;20711;-74
2021/09/02 03:12:55;;;;;;;28.27;13.50;;;14.00;94.30;;;;;;4933970;29;20403;-75
2021/09/02 03:15:21;;;;;;;22.07;12.60;;;14.00;94.50;;;;;;4933532;29;20205;-76
2021/09/02 03:17:47;;;;;;;22.23;13.20;;;14.00;94.30;;;;;;4933584;29;20168;-75
2021/09/02 03:20:13;;;;;;;26.17;13.93;;;14.00;94.30;;;;;;4933248;29;20595;-76
2021/09/02 03:22:39;;;;;;;24.10;12.33;;;14.00;94.40;;;;;;4933699;29;20521;-75
2021/09/02 03:25:05;;;;;;;20.83;11.97;;;14.00;94.50;;;;;;4933556;29;20463;-76
2021/09/02 03:27:31;;;;;;;25.57;12.43;;;14.00;94.50;;;;;;4933436;29;20609;-76
2021/09/02 03:29:57;;;;;;;25.80;12.87;;;14.00;94.40;;;;;;4933434;29;20477;-76
2021/09/02 03:32:23;;;;;;;24.33;11.23;;;14.00;94.40;;;;;;4932315;29;20202;-76
2021/09/02 03:34:48;;;;;;;23.47;12.10;;;13.90;94.30;;;;;;4933675;29;20177;-75
2021/09/02 03:37:14;;;;;;;21.27;13.00;;;13.90;94.20;;;;;;4932294;29;20758;-74
2021/09/02 03:39:40;;;;;;;21.33;13.13;;;13.90;94.30;;;;;;4933267;29;20205;-75
2021/09/02 03:42:06;;;;;;;22.50;11.60;;;13.90;94.30;;;;;;4933522;29;20179;-75
2021/09/02 03:44:32;;;;;;;25.40;14.00;;;13.90;94.20;;;;;;4916415;29;20485;-75
2021/09/02 03:46:58;;;;;;;22.70;11.97;;;13.90;94.20;;;;;;4932954;29;20232;-76
2021/09/02 03:49:24;;;;;;;18.03;10.83;;;13.80;94.30;;;;;;4933349;29;20170;-75
2021/09/02 03:51:49;;;;;;;23.37;12.30;;;13.80;94.40;;;;;;4933606;29;20599;-75
2021/09/02 03:54:15;;;;;;;21.47;11.73;;;13.80;94.50;;;;;;4932286;29;20656;-75
2021/09/02 03:56:41;;;;;;;23.60;13.00;;;13.80;94.50;;;;;;4932323;29;20329;-75
2021/09/02 03:59:06;;;;;;;23.23;12.67;;;13.80;94.60;;;;;;4916263;29;20178;-75
2021/09/02 04:01:32;;;;;;;23.37;12.37;;;13.80;94.60;;;;;;4933553;29;20204;-74
2021/09/02 04:04:01;;;;;;;18.70;11.97;;;13.70;94.70;;;;;;4933899;29;20167;-75
2021/09/02 04:06:27;;;;;;;25.20;12.47;;;13.70;94.70;;;;;;4933908;29;20166;-74
2021/09/02 04:08:52;;;;;;;20.40;11.90;;;13.70;94.70;;;;;;4933174;29;20496;-75
2021/09/02 04:11:18;;;;;;;22.47;12.13;;;13.60;94.70;;;;;;4938061;29;20249;-74
2021/09/02 04:13:46;;;;;;;20.30;12.77;;;13.60;94.70;;;;;;4937341;29;20250;-74
2021/09/02 04:16:12;;;;;;;20.60;12.70;;;13.60;94.70;;;;;;4937508;29;20170;-75
2021/09/02 04:18:41;;;;;;;19.10;12.83;;;13.50;94.70;;;;;;4935841;29;20415;-75
2021/09/02 04:21:07;;;;;;;22.13;11.67;;;13.50;94.90;;;;;;4950037;23;20489;-76
2021/09/02 04:23:33;;;;;;;22.37;13.30;;;13.40;94.90;;;;;;4937130;29;20451;-76
2021/09/02 04:26:00;;;;;;;23.03;12.57;;;13.40;95.30;;;;;;4936665;29;20406;-76
2021/09/02 04:28:26;;;;;;;26.77;14.60;;;13.30;95.00;;;;;;4935424;29;20460;-75
2021/09/02 04:30:52;;;;;;;35.20;13.40;;;13.30;95.10;;;;;;4935365;29;20468;-76
2021/09/02 04:33:17;;;;;;;22.33;12.40;;;13.30;95.20;;;;;;4937693;29;20715;-76
2021/09/02 04:35:43;;;;;;;29.97;12.60;;;13.20;95.20;;;;;;4938991;29;20540;-77
2021/09/02 04:38:09;;;;;;;24.43;12.67;;;13.20;95.30;;;;;;4937160;29;20579;-76
2021/09/02 04:40:35;;;;;;;22.53;11.27;;;13.20;95.40;;;;;;4937378;29;20761;-76
2021/09/02 04:43:01;;;;;;;20.23;13.63;;;13.10;95.30;;;;;;4936860;29;20549;-76
2021/09/02 04:45:26;;;;;;;24.00;12.63;;;13.10;95.80;;;;;;4941395;29;20406;-75
2021/09/02 04:47:52;;;;;;;23.50;13.03;;;13.10;95.60;;;;;;4935926;29;20173;-76
2021/09/02 04:50:18;;;;;;;28.37;12.40;;;13.10;95.50;;;;;;4936495;29;20190;-75
2021/09/02 04:52:44;;;;;;;27.00;13.43;;;13.00;95.50;;;;;;4935023;29;20182;-75
2021/09/02 04:55:11;;;;;;;22.40;12.70;;;13.00;95.50;;;;;;4935600;29;20425;-76
2021/09/02 04:57:38;;;;;;;21.73;11.43;;;13.00;95.50;;;;;;4934726;29;20264;-76
2021/09/02 05:00:05;;;;;;;25.20;12.90;;;13.00;95.50;;;;;;4924023;29;20544;-76
2021/09/02 05:02:31;;;;;;;22.00;11.70;;;13.00;95.40;;;;;;4925512;29;20546;-76
2021/09/02 05:04:57;;;;;;;25.33;12.63;;;13.00;95.50;;;;;;4926877;29;20444;-76
2021/09/02 05:07:23;;;;;;;23.33;12.60;;;12.90;95.90;;;;;;4926065;29;20672;-68
2021/09/02 05:09:49;;;;;;;26.80;11.50;;;12.90;95.60;;;;;;4916469;29;20643;-68
2021/09/02 05:12:16;;;;;;;21.90;12.03;;;12.90;95.50;;;;;;4914410;29;20475;-68
2021/09/02 05:14:42;;;;;;;25.00;12.33;;;12.90;95.50;;;;;;4916454;29;20186;-68
2021/09/02 05:17:09;;;;;;;26.60;11.47;;;12.90;95.50;;;;;;4916598;29;20425;-68
2021/09/02 05:19:35;;;;;;;19.80;12.10;;;12.90;95.60;;;;;;4916291;29;20445;-67
2021/09/02 05:22:00;;;;;;;22.00;11.53;;;13.00;95.70;;;;;;4915540;29;20499;-68
2021/09/02 05:24:26;;;;;;;24.50;12.10;;;13.00;95.60;;;;;;4916179;29;20422;-68
2021/09/02 05:26:52;;;;;;;27.00;12.90;;;13.10;95.60;;;;;;4916198;29;20185;-68
2021/09/02 05:29:18;;;;;;;23.43;10.77;;;13.10;95.50;;;;;;4918949;29;20189;-68
2021/09/02 05:31:43;;;;;;;21.63;12.30;;;13.20;95.30;;;;;;4914626;29;20198;-68
2021/09/02 05:34:09;;;;;;;26.37;12.97;;;13.20;95.20;;;;;;4916616;29;20162;-68
2021/09/02 05:36:34;;;;;;;29.70;13.17;;;13.30;95.20;;;;;;4929400;29;20173;-69
2021/09/02 05:39:02;;;;;;;21.57;12.90;;;13.30;95.00;;;;;;4925915;29;20170;-69
2021/09/02 05:41:28;;;;;;;19.90;11.80;;;13.40;95.10;;;;;;4931944;29;20275;-69
2021/09/02 05:43:53;;;;;;;24.07;13.73;;;13.50;95.10;;;;;;4932550;29;20522;-69
2021/09/02 05:46:19;;;;;;;18.43;12.10;;;13.60;94.90;;;;;;4916172;29;20170;-69
2021/09/02 05:48:45;;;;;;;19.83;11.53;;;13.70;94.80;;;;;;4926248;29;20226;-69
2021/09/02 05:51:10;;;;;;;18.70;11.40;;;13.70;94.50;;;;;;4934786;29;20264;-68
2021/09/02 05:53:36;;;;;;;18.47;12.50;;;13.80;94.40;;;;;;4933426;29;20580;-69
2021/09/02 05:56:01;;;;;;;22.27;11.67;;;13.80;94.20;;;;;;4929555;29;20175;-69
2021/09/02 05:58:27;;;;;;;26.03;13.17;;;13.90;94.10;;;;;;4916435;29;20195;-69
2021/09/02 06:00:53;;;;;;;20.10;11.80;;;13.90;94.20;;;;;;4914156;29;20215;-69
2021/09/02 06:03:18;;;;;;;29.33;12.00;;;13.90;94.10;;;;;;4915759;29;20567;-70
2021/09/02 06:05:44;;;;;;;24.90;13.20;;;14.00;94.00;;;;;;4915354;29;20206;-69
2021/09/02 06:08:09;;;;;;;23.43;11.93;;;14.00;94.00;;;;;;4915403;29;20207;-69
2021/09/02 06:10:35;;;;;;;24.20;13.57;;;14.00;93.90;;;;;;4914311;29;20228;-70
2021/09/02 06:13:01;;;;;;;22.73;12.50;;;14.10;93.90;;;;;;4915736;29;20184;-68
2021/09/02 06:15:27;;;;;;;23.47;13.27;;;14.10;93.70;;;;;;4915273;29;20176;-69
2021/09/02 06:17:53;;;;;;;22.53;12.20;;;14.20;93.90;;;;;;4915325;29;20433;-68
2021/09/02 06:20:18;;;;;;;27.07;13.17;;;14.20;93.50;;;;;;4915586;29;20236;-68
2021/09/02 06:22:44;;;;;;;23.93;13.67;;;14.20;93.60;;;;;;4921617;29;20526;-69
2021/09/02 06:25:10;;;;;;;36.67;13.53;;;14.20;93.60;;;;;;4929058;29;20190;-69
2021/09/02 06:27:37;;;;;;;26.13;12.33;;;14.20;93.50;;;;;;4933577;29;20249;-69
2021/09/02 06:30:04;;;;;;;25.23;12.27;;;14.30;93.60;;;;;;4926408;29;20488;-68
2021/09/02 06:32:30;;;;;;;26.80;13.33;;;14.40;93.50;;;;;;4933202;29;20407;-69
2021/09/02 06:34:56;;;;;;;17.97;12.50;;;14.40;93.20;;;;;;4934120;29;20924;-68
2021/09/02 06:37:21;;;;;;;25.40;13.77;;;14.50;92.80;;;;;;4933985;29;20175;-69
2021/09/02 06:39:47;;;;;;;26.67;12.40;;;14.50;92.80;;;;;;4932091;29;20171;-69
2021/09/02 06:42:12;;;;;;;23.13;11.60;;;14.50;92.90;;;;;;4914054;29;20210;-69
2021/09/02 06:44:38;;;;;;;22.03;13.93;;;14.50;92.60;;;;;;4925709;29;20174;-69
2021/09/02 06:47:04;;;;;;;21.80;12.00;;;14.50;92.70;;;;;;4933604;29;20288;-68
2021/09/02 06:49:29;;;;;;;21.97;13.27;;;14.50;92.70;;;;;;4933459;29;20177;-70
2021/09/02 06:51:55;;;;;;;21.10;10.53;;;14.60;92.80;;;;;;4933078;29;20194;-68
2021/09/02 06:54:21;;;;;;;27.33;13.30;;;14.60;92.60;;;;;;4933306;29;20548;-68
2021/09/02 06:56:47;;;;;;;20.50;12.47;;;14.70;92.60;;;;;;4931905;29;20557;-69
2021/09/02 06:59:13;;;;;;;24.40;12.50;;;14.70;92.50;;;;;;4932034;29;20506;-69
2021/09/02 07:01:38;;;;;;;25.43;13.43;;;14.80;92.30;;;;;;4932072;29;20190;-68
2021/09/02 07:04:05;;;;;;;22.17;11.90;;;14.80;92.20;;;;;;4920777;29;20274;-68
2021/09/02 07:06:31;;;;;;;26.60;14.77;;;14.80;91.90;;;;;;4916435;29;20457;-68
2021/09/02 07:08:56;;;;;;;23.17;13.73;;;14.90;91.60;;;;;;4918189;29;20193;-69
2021/09/02 07:11:22;;;;;;;26.73;13.80;;;14.90;91.30;;;;;;4930908;29;20234;-68
2021/09/02 07:13:47;;;;;;;24.63;11.57;;;15.00;91.20;;;;;;4933770;29;20198;-67
2021/09/02 07:16:13;;;;;;;23.87;13.77;;;15.00;90.90;;;;;;4927344;29;20216;-68
2021/09/02 07:18:39;;;;;;;26.23;11.97;;;15.10;90.80;;;;;;4918695;29;20289;-68
2021/09/02 07:21:04;;;;;;;27.30;13.20;;;15.20;90.60;;;;;;4925785;29;20199;-69
2021/09/02 07:23:30;;;;;;;21.90;12.43;;;15.20;90.30;;;;;;4933699;29;20177;-68
2021/09/02 07:25:56;;;;;;;20.97;12.47;;;15.40;90.60;;;;;;4931260;29;20169;-69
2021/09/02 07:28:22;;;;;;;26.00;12.27;;;15.70;90.30;;;;;;4933813;29;20177;-70
2021/09/02 07:30:47;;;;;;;21.23;11.80;;;16.00;88.90;;;;;;4928288;29;20197;-68
2021/09/02 07:33:13;;;;;;;19.30;10.67;;;16.80;87.40;;;;;;4920899;29;20245;-69
2021/09/02 07:35:39;;;;;;;16.27;11.03;;;17.70;82.80;;;;;;4933793;29;20457;-68
2021/09/02 07:38:06;;;;;;;47.13;15.90;;;18.10;77.60;;;;;;4932646;29;20182;-69
2021/09/02 07:40:31;;;;;;;18.20;10.53;;;18.10;76.20;;;;;;4932667;29;20220;-68
2021/09/02 07:42:57;;;;;;;21.30;11.30;;;18.00;77.50;;;;;;4932477;29;20422;-68
2021/09/02 07:45:23;;;;;;;24.83;11.87;;;17.90;77.20;;;;;;4933954;29;20819;-69
2021/09/02 07:47:48;;;;;;;24.00;11.47;;;18.00;76.20;;;;;;4933627;29;20563;-68
2021/09/02 07:50:14;;;;;;;17.90;10.77;;;18.00;76.20;;;;;;4922821;29;20184;-70
2021/09/02 07:52:40;;;;;;;17.20;10.27;;;17.80;76.00;;;;;;4917814;29;20275;-70
2021/09/02 07:55:07;;;;;;;19.27;11.63;;;17.90;76.20;;;;;;4917572;29;20199;-70
2021/09/02 07:57:33;;;;;;;20.37;11.07;;;18.30;76.20;;;;;;4917685;29;20167;-68
2021/09/02 07:59:59;;;;;;;18.90;11.93;;;19.50;73.60;;;;;;4917162;29;20466;-70
2021/09/02 08:02:24;;;;;;;20.67;14.27;;;21.00;68.80;;;;;;4918658;29;20517;-68
2021/09/02 08:04:50;;;;;;;18.80;13.00;;;22.30;62.30;;;;;;4917747;29;20671;-67
2021/09/02 08:07:16;;;;;;;23.47;14.23;;;23.40;58.40;;;;;;4916525;29;20230;-69
2021/09/02 08:09:41;;;;;;;18.90;12.27;;;24.30;54.80;;;;;;4916940;29;20179;-69
2021/09/02 08:12:07;;;;;;;15.43;11.13;;;24.60;52.90;;;;;;4917118;29;20195;-69
2021/09/02 08:14:33;;;;;;;16.97;11.90;;;24.90;52.80;;;;;;4917155;29;20640;-69
2021/09/02 08:16:59;;;;;;;22.80;13.57;;;25.30;51.80;;;;;;4922655;29;20600;-68
2021/09/02 08:19:25;;;;;;;19.13;12.57;;;26.00;49.80;;;;;;4936013;29;20173;-68
2021/09/02 08:21:50;;;;;;;22.90;19.63;;;26.40;48.50;;;;;;4932965;29;20210;-69
2021/09/02 08:24:16;;;;;;;16.17;13.30;;;26.80;47.80;;;;;;4936282;29;20249;-68
2021/09/02 08:26:42;;;;;;;19.10;13.47;;;27.30;46.50;;;;;;4936191;29;20186;-69
2021/09/02 08:29:12;;;;;;;18.67;13.20;;;27.80;45.50;;;;;;4934007;29;20540;-68
2021/09/02 08:31:37;;;;;;;15.50;12.50;;;27.80;44.90;;;;;;4918297;29;20450;-69
2021/09/02 08:34:03;;;;;;;19.97;13.57;;;28.30;44.10;;;;;;4923423;29;20509;-69
2021/09/02 08:36:29;;;;;;;15.97;13.50;;;28.60;42.20;;;;;;4917803;29;20586;-68
2021/09/02 08:38:54;;;;;;;18.10;13.30;;;28.10;43.60;;;;;;4935557;29;20256;-69
2021/09/02 08:41:20;;;;;;;19.53;13.80;;;28.20;43.60;;;;;;4935593;29;20202;-69
2021/09/02 08:43:47;;;;;;;15.43;12.77;;;28.50;42.50;;;;;;4933987;29;20209;-69
2021/09/02 08:46:14;;;;;;;17.03;12.40;;;28.80;42.20;;;;;;4933848;29;20425;-69
2021/09/02 08:48:47;;;;;;;13.13;11.80;;;29.30;41.00;;;;;;4935594;29;20410;-69
2021/09/02 08:51:14;;;;;;;15.70;12.20;;;29.90;40.80;;;;;;4935499;29;20532;-70
2021/09/02 08:53:41;;;;;;;17.30;13.03;;;30.60;39.10;;;;;;4933944;29;20420;-68
2021/09/02 08:56:07;;;;;;;13.63;11.47;;;30.80;38.90;;;;;;4934289;29;20461;-69
2021/09/02 08:58:33;;;;;;;16.27;14.43;;;31.10;37.80;;;;;;4933807;29;20919;-68
2021/09/02 09:00:59;;;;;;;16.33;12.77;;;31.00;37.20;;;;;;4927828;29;20201;-68
2021/09/02 09:03:25;;;;;;;16.33;12.70;;;30.90;37.40;;;;;;4925468;29;20691;-70
2021/09/02 09:05:56;;;;;;;15.87;13.00;;;30.60;38.00;;;;;;4926242;29;20424;-67
2021/09/02 09:08:40;;;;;;;12.97;11.50;;;30.40;38.40;;;;;;4927826;29;20966;-69
2021/09/02 09:11:28;;;;;;;15.73;12.57;;;30.90;37.50;;;;;;4934964;29;20437;-69
2021/09/02 09:14:13;;;;;;;17.30;13.00;;;31.40;38.00;;;;;;4924741;29;21107;-69
2021/09/02 09:16:48;;;;;;;18.53;12.83;;;32.00;36.50;;;;;;4914740;29;20388;-67
2021/09/02 09:19:54;;;;;;;14.33;12.83;;;32.30;35.80;;;;;;4914665;29;20417;-69
2021/09/02 09:22:22;;;;;;;19.90;17.83;;;32.20;35.50;;;;;;4934349;29;20475;-69
2021/09/02 09:24:56;;;;;;;13.00;11.60;;;32.10;36.80;;;;;;4935056;29;20820;-68
2021/09/02 09:27:36;;;;;;;13.13;11.83;;;32.30;35.40;;;;;;4934665;29;20420;-68
2021/09/02 09:30:06;;;;;;;17.50;13.50;;;32.60;35.00;;;;;;4933032;29;20416;-70
2021/09/02 09:32:46;;;;;;;12.77;11.47;;;32.50;35.70;;;;;;4932512;29;20430;-70
2021/09/02 09:35:15;;;;;;;16.13;12.30;;;32.00;35.30;;;;;;4934602;29;20583;-68
2021/09/02 09:37:42;;;;;;;12.80;11.37;;;31.80;35.80;;;;;;4924438;29;20573;-68
2021/09/02 09:40:25;;;;;;;16.60;10.97;;;31.60;36.20;;;;;;4916317;29;20465;-68
2021/09/02 09:42:58;;;;;;;13.17;11.73;;;31.20;36.10;;;;;;4915268;29;20901;-68
2021/09/02 09:45:38;;;;;;;20.00;17.40;;;31.30;36.10;;;;;;4915535;29;20406;-68
2021/09/02 09:48:04;;;;;;;11.90;9.90;;;31.90;34.80;;;;;;4915009;29;20520;-69
2021/09/02 09:50:30;;;;;;;13.13;10.17;;;31.90;35.40;;;;;;4915575;29;20422;-68
2021/09/02 09:52:56;;;;;;;13.33;10.23;;;31.70;35.50;;;;;;4915504;29;20437;-69
2021/09/02 09:55:21;;;;;;;11.87;10.27;;;32.00;35.10;;;;;;4915326;29;20181;-68
2021/09/02 09:57:48;;;;;;;11.13;10.03;;;32.70;34.30;;;;;;4916876;29;20189;-70
2021/09/02 10:00:17;;;;;;;14.27;11.50;;;33.00;34.30;;;;;;4924620;29;20197;-68
2021/09/02 10:02:45;;;;;;;16.08;10.90;;;33.40;33.40;;;;;;4916553;29;20930;-68
2021/09/02 10:05:13;;;;;;;13.02;11.63;;;33.40;33.30;;;;;;4934087;29;20416;-69
2021/09/02 10:07:41;;;;;;;12.30;11.00;;;33.40;33.40;;;;;;4933326;29;20823;-69
2021/09/02 10:10:13;;;;;;;13.45;11.52;;;33.50;32.90;;;;;;4933984;29;20173;-68
2021/09/02 10:12:40;;;;;;;11.88;10.65;;;33.80;33.00;;;;;;4933636;29;20509;-69
2021/09/02 10:15:08;;;;;;;10.57;9.48;;;33.60;32.70;;;;;;4933480;29;20667;-68
2021/09/02 10:17:35;;;;;;;11.75;10.48;;;33.40;32.30;;;;;;4928547;29;20197;-70
2021/09/02 10:20:04;;;;;;;12.43;10.48;;;33.80;32.70;;;;;;4914404;29;20178;-68
2021/09/02 10:22:32;;;;;;;21.02;10.88;;;34.20;31.70;;;;;;4972503;23;20225;-74
2021/09/02 10:24:58;;;;;;;11.25;10.15;;;34.00;32.00;;;;;;4935085;29;20178;-75
2021/09/02 10:27:25;;;;;;;14.73;10.75;;;34.10;32.10;;;;;;4934516;29;20326;-74
2021/09/02 10:29:52;;;;;;;11.70;10.50;;;34.40;31.70;;;;;;4934146;29;20169;-75
2021/09/02 10:32:24;;;;;;;12.07;9.55;;;34.80;31.00;;;;;;4933140;29;20687;-74
2021/09/02 10:34:50;;;;;;;12.52;11.20;;;35.00;31.00;;;;;;4923220;29;20644;-74
2021/09/02 10:37:41;;;;;;;12.75;10.40;;;35.10;30.70;;;;;;4916860;29;20174;-74
2021/09/02 10:40:16;;;;;;;11.60;9.90;;;35.30;30.00;;;;;;4924509;29;20233;-75
2021/09/02 10:42:43;;;;;;;13.07;10.87;;;34.40;30.50;;;;;;4931994;29;20552;-75
2021/09/02 10:45:31;;;;;;;13.50;9.57;;;32.90;32.30;;;;;;4933809;29;20880;-75
2021/09/02 10:48:02;;;;;;;11.20;9.97;;;31.50;35.60;;;;;;4932297;29;20422;-76
2021/09/02 10:50:34;;;;;;;10.77;9.37;;;30.10;37.50;;;;;;4932488;29;20855;-75
2021/09/02 10:53:14;;;;;;;12.33;10.13;;;28.70;39.70;;;;;;4931933;29;20480;-75
2021/09/02 10:55:45;;;;;;;10.03;7.10;;;27.40;41.30;;;;;;4935756;29;20422;-74
2021/09/02 10:59:22;;;;;;;13.83;8.70;;;26.30;44.10;;;;;;4916089;29;20402;-73
2021/09/02 11:01:46;;;;;;;12.83;8.43;;;25.50;46.10;;;;;;4929279;29;21074;-75
2021/09/02 11:04:12;;;;;;;11.50;9.00;;;24.60;47.40;;;;;;4914969;29;20732;-75
2021/09/02 11:06:48;;;;;;;12.67;8.33;;;24.00;49.50;;;;;;4913442;29;20189;-75
2021/09/02 11:09:37;;;;;;;16.23;8.77;;;23.70;50.40;;;;;;4914505;29;20411;-75
2021/09/02 11:12:05;;;;;;;11.97;8.00;;;23.60;50.70;;;;;;4915614;29;20836;-75
2021/09/02 11:14:37;;;;;;;12.60;7.77;;;23.50;50.50;;;;;;4916957;29;20419;-75
2021/09/02 11:17:07;;;;;;;12.13;6.87;;;23.40;51.00;;;;;;4925446;29;20465;-75
2021/09/02 11:19:35;;;;;;;16.40;11.23;;;23.40;51.70;;;;;;4914840;29;20425;-75
2021/09/02 11:22:15;;;;;;;8.60;6.50;;;23.60;51.80;;;;;;4917404;29;20526;-75
2021/09/02 11:24:55;;;;;;;10.23;7.30;;;23.60;51.40;;;;;;4919034;29;20516;-74
2021/09/02 11:27:27;;;;;;;14.27;8.53;;;23.80;51.20;;;;;;4918135;29;20417;-76
2021/09/02 11:29:53;;;;;;;8.47;6.60;;;23.80;51.50;;;;;;4914688;29;20823;-76
2021/09/02 11:32:24;;;;;;;10.67;7.07;;;23.80;51.30;;;;;;4915143;29;20449;-75
2021/09/02 11:35:00;;;;;;;9.90;5.47;;;23.80;51.30;;;;;;4913447;29;20171;-75
2021/09/02 11:37:43;;;;;;;6.57;5.00;;;23.70;50.30;;;;;;4914920;29;20418;-75
2021/09/02 11:40:20;;;;;;;6.87;5.33;;;23.60;49.80;;;;;;4914938;29;20955;-76
2021/09/02 11:42:46;;;;;;;36.90;19.80;;;23.60;50.20;;;;;;4917653;29;20452;-76
2021/09/02 11:45:15;;;;;;;9.50;5.80;;;23.40;50.60;;;;;;4927020;29;20507;-77
2021/09/02 11:47:41;;;;;;;8.07;6.03;;;23.20;50.70;;;;;;4932572;29;20450;-78
2021/09/02 11:50:07;;;;;;;7.53;6.33;;;23.00;51.30;;;;;;4923219;29;20422;-78
2021/09/02 11:52:41;;;;;;;9.27;6.67;;;22.90;52.40;;;;;;4924508;29;21084;-77
2021/09/02 11:55:11;;;;;;;10.03;6.80;;;22.90;52.10;;;;;;4913530;29;20541;-77
2021/09/02 11:57:37;;;;;;;19.83;13.10;;;22.80;52.50;;;;;;4915888;29;20795;-77
2021/09/02 12:00:03;;;;;;;14.80;8.00;;;22.90;53.50;;;;;;4917362;29;20422;-77
2021/09/02 12:02:30;;;;;;;10.60;7.40;;;23.00;53.00;;;;;;4915370;29;20203;-78
2021/09/02 12:04:56;;;;;;;8.00;5.77;;;23.10;52.40;;;;;;4915954;29;20430;-77
2021/09/02 12:07:22;;;;;;;7.97;5.37;;;23.20;52.10;;;;;;4915721;29;20653;-77
2021/09/02 12:09:50;;;;;;;9.70;6.50;;;23.20;52.20;;;;;;4914135;29;20434;-77
2021/09/02 12:12:32;;;;;;;9.00;5.43;;;23.10;51.60;;;;;;4913833;29;20541;-77
2021/09/02 12:14:58;;;;;;;11.73;6.30;;;23.10;51.60;;;;;;4914908;29;20418;-78
2021/09/02 12:17:36;;;;;;;13.30;4.87;;;23.10;51.90;;;;;;4913713;29;20473;-77
2021/09/02 12:20:03;;;;;;;7.83;5.80;;;23.10;52.20;;;;;;4914773;29;20425;-78
2021/09/02 12:22:38;;;;;;;13.13;10.63;;;23.10;52.30;;;;;;4914088;29;20548;-77
2021/09/02 12:25:19;;;;;;;10.37;6.40;;;23.10;52.30;;;;;;4928878;29;20426;-76
2021/09/02 12:27:50;;;;;;;11.60;6.43;;;23.10;52.40;;;;;;4933066;29;20414;-78
2021/09/02 12:30:38;;;;;;;9.03;6.13;;;23.20;51.40;;;;;;4934959;29;20446;-78
2021/09/02 12:33:13;;;;;;;9.47;5.63;;;23.10;51.20;;;;;;4923972;29;20433;-78